Gaines, Michigan
Current Conditions -  °F | °C
As of 1:53 AM on Sunday 26 Oct 2014 (Local Time) from KFNT Reporting Station
Clear Clear  
Wind Chill: 41°   Ceiling: Unl
Heat Index: 45°   Visibility: 10mi
Dew Point: 33°   Wind: 8mph
Humidity: 63%   Direction: 280°W
Pressure: 29.85"   Gusts: NA
Location:  42.87°N, 83.91°W
Report Text: KFNT 260553Z AUTO 28007KT 10SM CLR 07/01 A2985 RMK AO2 SLP109 T00720006 10133 20072 51013
Loading
Personal Weather Stations






























Interactive Weather Map
Tropical Storm Tracking
New forecast layout! Learn more

10-Day Weather Forecast

Advertisements
Track Severe Weather on mobile